sensor_id;sensor_type;location;lat;lon;timestamp;pressure;altitude;pressure_sealevel;temperature;humidity
9746;BME280;4912;50.836;12.958;2023-01-27T00:02:17;98149.66;;;0.33;91.04
9746;BME280;4912;50.836;12.958;2023-01-27T00:04:48;98145.00;;;0.41;91.64
9746;BME280;4912;50.836;12.958;2023-01-27T00:07:18;98136.03;;;0.40;91.05
9746;BME280;4912;50.836;12.958;2023-01-27T00:09:48;98139.16;;;0.39;90.96
9746;BME280;4912;50.836;12.958;2023-01-27T00:12:23;98130.59;;;0.44;91.33
9746;BME280;4912;50.836;12.958;2023-01-27T00:15:08;98126.69;;;0.41;90.91
9746;BME280;4912;50.836;12.958;2023-01-27T00:17:39;98127.47;;;0.46;90.97
9746;BME280;4912;50.836;12.958;2023-01-27T00:20:10;98127.84;;;0.48;90.72
9746;BME280;4912;50.836;12.958;2023-01-27T00:23:01;98132.13;;;0.52;90.53
9746;BME280;4912;50.836;12.958;2023-01-27T00:25:44;98127.44;;;0.56;90.93
9746;BME280;4912;50.836;12.958;2023-01-27T00:28:26;98118.13;;;0.50;90.47
9746;BME280;4912;50.836;12.958;2023-01-27T00:30:57;98117.72;;;0.55;90.69
9746;BME280;4912;50.836;12.958;2023-01-27T00:33:28;98129.00;;;0.54;90.88
9746;BME280;4912;50.836;12.958;2023-01-27T00:35:57;98127.81;;;0.55;90.75
9746;BME280;4912;50.836;12.958;2023-01-27T00:38:29;98139.88;;;0.64;90.82
9746;BME280;4912;50.836;12.958;2023-01-27T00:41:00;98141.41;;;0.69;90.63
9746;BME280;4912;50.836;12.958;2023-01-27T00:43:47;98136.72;;;0.76;90.53
9746;BME280;4912;50.836;12.958;2023-01-27T00:46:19;98139.44;;;0.76;89.69
9746;BME280;4912;50.836;12.958;2023-01-27T00:48:50;98130.09;;;0.74;89.35
9746;BME280;4912;50.836;12.958;2023-01-27T00:51:21;98133.59;;;0.71;88.52
9746;BME280;4912;50.836;12.958;2023-01-27T00:53:51;98135.97;;;0.69;88.71
9746;BME280;4912;50.836;12.958;2023-01-27T00:56:22;98140.25;;;0.66;88.71
9746;BME280;4912;50.836;12.958;2023-01-27T00:58:57;98139.84;;;0.68;88.57
9746;BME280;4912;50.836;12.958;2023-01-27T01:01:28;98131.31;;;0.55;88.79
9746;BME280;4912;50.836;12.958;2023-01-27T01:04:00;98141.06;;;0.53;89.20
9746;BME280;4912;50.836;12.958;2023-01-27T01:06:30;98144.94;;;0.55;89.52
9746;BME280;4912;50.836;12.958;2023-01-27T01:09:02;98141.44;;;0.62;89.91
9746;BME280;4912;50.836;12.958;2023-01-27T01:11:32;98134.03;;;0.62;89.67
9746;BME280;4912;50.836;12.958;2023-01-27T01:14:05;98135.97;;;0.62;89.80
9746;BME280;4912;50.836;12.958;2023-01-27T01:16:35;98143.75;;;0.63;90.00
9746;BME280;4912;50.836;12.958;2023-01-27T01:19:05;98130.13;;;0.67;90.02
9746;BME280;4912;50.836;12.958;2023-01-27T01:21:36;98137.91;;;0.61;89.95
9746;BME280;4912;50.836;12.958;2023-01-27T01:24:07;98141.81;;;0.64;90.20
9746;BME280;4912;50.836;12.958;2023-01-27T01:26:37;98139.88;;;0.64;90.39
9746;BME280;4912;50.836;12.958;2023-01-27T01:29:10;98129.78;;;0.58;90.44
9746;BME280;4912;50.836;12.958;2023-01-27T01:31:40;98143.75;;;0.60;90.78
9746;BME280;4912;50.836;12.958;2023-01-27T01:34:11;98141.00;;;0.67;90.93
9746;BME280;4912;50.836;12.958;2023-01-27T01:36:42;98145.69;;;0.70;91.19
9746;BME280;4912;50.836;12.958;2023-01-27T01:39:13;98144.50;;;0.74;90.93
9746;BME280;4912;50.836;12.958;2023-01-27T01:41:43;98141.38;;;0.76;90.43
9746;BME280;4912;50.836;12.958;2023-01-27T01:44:21;98132.84;;;0.74;90.53
9746;BME280;4912;50.836;12.958;2023-01-27T01:46:52;98132.44;;;0.72;90.56
9746;BME280;4912;50.836;12.958;2023-01-27T01:49:32;98137.88;;;0.75;90.47
9746;BME280;4912;50.836;12.958;2023-01-27T01:52:07;98131.28;;;0.73;90.39
9746;BME280;4912;50.836;12.958;2023-01-27T01:54:41;98131.28;;;0.69;90.52
9746;BME280;4912;50.836;12.958;2023-01-27T01:57:17;98130.16;;;0.63;90.84
9746;BME280;4912;50.836;12.958;2023-01-27T01:59:56;98130.13;;;0.60;90.76
9746;BME280;4912;50.836;12.958;2023-01-27T02:02:28;98134.03;;;0.62;90.87
9746;BME280;4912;50.836;12.958;2023-01-27T02:05:02;98132.88;;;0.63;90.81
9746;BME280;4912;50.836;12.958;2023-01-27T02:07:40;98128.22;;;0.57;90.95
9746;BME280;4912;50.836;12.958;2023-01-27T02:10:13;98132.47;;;0.65;90.99
9746;BME280;4912;50.836;12.958;2023-01-27T02:12:44;98134.00;;;0.66;91.07
9746;BME280;4912;50.836;12.958;2023-01-27T02:15:18;98139.06;;;0.67;91.12
9746;BME280;4912;50.836;12.958;2023-01-27T02:17:48;98129.34;;;0.70;91.59
9746;BME280;4912;50.836;12.958;2023-01-27T02:20:26;98130.88;;;0.74;91.05
9746;BME280;4912;50.836;12.958;2023-01-27T02:23:04;98126.25;;;0.64;90.72
9746;BME280;4912;50.836;12.958;2023-01-27T02:25:47;98133.25;;;0.62;91.12
9746;BME280;4912;50.836;12.958;2023-01-27T02:28:17;98127.41;;;0.60;91.34
9746;BME280;4912;50.836;12.958;2023-01-27T02:30:48;98132.84;;;0.67;91.63
9746;BME280;4912;50.836;12.958;2023-01-27T02:33:18;98139.81;;;0.71;91.60
9746;BME280;4912;50.836;12.958;2023-01-27T02:35:56;98135.16;;;0.75;91.45
9746;BME280;4912;50.836;12.958;2023-01-27T02:38:33;98140.97;;;0.81;91.48
9746;BME280;4912;50.836;12.958;2023-01-27T02:41:12;98138.63;;;0.83;91.17
9746;BME280;4912;50.836;12.958;2023-01-27T02:43:46;98142.91;;;0.88;90.61
9746;BME280;4912;50.836;12.958;2023-01-27T02:46:20;98146.78;;;0.83;90.35
9746;BME280;4912;50.836;12.958;2023-01-27T02:48:51;98149.94;;;0.81;90.56
9746;BME280;4912;50.836;12.958;2023-01-27T02:51:22;98145.63;;;0.88;90.48
9746;BME280;4912;50.836;12.958;2023-01-27T02:53:52;98148.34;;;0.88;90.63
9746;BME280;4912;50.836;12.958;2023-01-27T02:56:25;98147.16;;;0.89;90.55
9746;BME280;4912;50.836;12.958;2023-01-27T02:58:56;98147.16;;;0.92;90.20
9746;BME280;4912;50.836;12.958;2023-01-27T03:01:37;98145.59;;;0.91;90.14
9746;BME280;4912;50.836;12.958;2023-01-27T03:04:07;98147.97;;;0.86;89.59
9746;BME280;4912;50.836;12.958;2023-01-27T03:06:38;98148.38;;;0.77;89.37
9746;BME280;4912;50.836;12.958;2023-01-27T03:09:08;98149.56;;;0.72;90.02
9746;BME280;4912;50.836;12.958;2023-01-27T03:11:41;98150.72;;;0.75;90.53
9746;BME280;4912;50.836;12.958;2023-01-27T03:14:24;98157.34;;;0.74;90.34
9746;BME280;4912;50.836;12.958;2023-01-27T03:17:07;98150.69;;;0.78;90.33
9746;BME280;4912;50.836;12.958;2023-01-27T03:19:50;98150.72;;;0.75;90.34
9746;BME280;4912;50.836;12.958;2023-01-27T03:22:20;98160.06;;;0.74;90.41
9746;BME280;4912;50.836;12.958;2023-01-27T03:24:53;98149.97;;;0.67;90.47
9746;BME280;4912;50.836;12.958;2023-01-27T03:27:27;98148.81;;;0.68;90.64
9746;BME280;4912;50.836;12.958;2023-01-27T03:30:16;98153.84;;;0.70;91.14
9746;BME280;4912;50.836;12.958;2023-01-27T03:32:55;98153.09;;;0.69;90.65
9746;BME280;4912;50.836;12.958;2023-01-27T03:35:44;98159.28;;;0.66;90.96
9746;BME280;4912;50.836;12.958;2023-01-27T03:38:27;98157.75;;;0.65;91.06
9746;BME280;4912;50.836;12.958;2023-01-27T03:41:10;98162.78;;;0.67;91.17
9746;BME280;4912;50.836;12.958;2023-01-27T03:43:56;98169.00;;;0.71;90.63
9746;BME280;4912;50.836;12.958;2023-01-27T03:46:39;98180.28;;;0.73;90.20
9746;BME280;4912;50.836;12.958;2023-01-27T03:49:09;98160.09;;;0.70;90.16
9746;BME280;4912;50.836;12.958;2023-01-27T03:51:39;98162.78;;;0.74;90.44
9746;BME280;4912;50.836;12.958;2023-01-27T03:54:10;98160.81;;;0.78;90.27
9746;BME280;4912;50.836;12.958;2023-01-27T03:56:40;98165.47;;;0.77;90.40
9746;BME280;4912;50.836;12.958;2023-01-27T03:59:13;98166.66;;;0.80;89.87
9746;BME280;4912;50.836;12.958;2023-01-27T04:01:44;98170.16;;;0.80;89.98
9746;BME280;4912;50.836;12.958;2023-01-27T04:04:14;98163.91;;;0.83;89.91
9746;BME280;4912;50.836;12.958;2023-01-27T04:06:57;98170.91;;;0.85;89.66
9746;BME280;4912;50.836;12.958;2023-01-27T04:09:30;98170.13;;;0.84;89.18
9746;BME280;4912;50.836;12.958;2023-01-27T04:12:04;98170.91;;;0.88;88.80
9746;BME280;4912;50.836;12.958;2023-01-27T04:14:39;98172.47;;;0.86;88.68
9746;BME280;4912;50.836;12.958;2023-01-27T04:17:12;98174.00;;;0.90;88.42
9746;BME280;4912;50.836;12.958;2023-01-27T04:19:44;98172.09;;;0.87;88.49
9746;BME280;4912;50.836;12.958;2023-01-27T04:22:15;98170.50;;;0.90;88.79
9746;BME280;4912;50.836;12.958;2023-01-27T04:24:45;98181.00;;;0.91;89.08
9746;BME280;4912;50.836;12.958;2023-01-27T04:27:16;98173.22;;;0.90;89.16
9746;BME280;4912;50.836;12.958;2023-01-27T04:29:49;98176.72;;;0.90;89.13
9746;BME280;4912;50.836;12.958;2023-01-27T04:32:19;98181.81;;;0.88;88.65
9746;BME280;4912;50.836;12.958;2023-01-27T04:34:50;98171.66;;;0.89;88.11
9746;BME280;4912;50.836;12.958;2023-01-27T04:37:20;98175.19;;;0.86;87.81
9746;BME280;4912;50.836;12.958;2023-01-27T04:39:51;98174.41;;;0.85;88.02
9746;BME280;4912;50.836;12.958;2023-01-27T04:42:21;98169.38;;;0.80;87.13
9746;BME280;4912;50.836;12.958;2023-01-27T04:44:54;98160.81;;;0.78;87.25
9746;BME280;4912;50.836;12.958;2023-01-27T04:47:24;98162.38;;;0.79;87.24
9746;BME280;4912;50.836;12.958;2023-01-27T04:49:55;98161.59;;;0.82;87.64
9746;BME280;4912;50.836;12.958;2023-01-27T04:52:25;98172.09;;;0.87;87.62
9746;BME280;4912;50.836;12.958;2023-01-27T04:54:55;98177.50;;;0.91;87.59
9746;BME280;4912;50.836;12.958;2023-01-27T04:57:26;98176.34;;;0.92;88.00
9746;BME280;4912;50.836;12.958;2023-01-27T04:59:59;98175.94;;;0.97;87.35
9746;BME280;4912;50.836;12.958;2023-01-27T05:02:29;98177.50;;;0.94;86.96
9746;BME280;4912;50.836;12.958;2023-01-27T05:04:59;98183.75;;;0.91;87.17
9746;BME280;4912;50.836;12.958;2023-01-27T05:07:31;98177.13;;;0.92;87.17
9746;BME280;4912;50.836;12.958;2023-01-27T05:10:01;98188.41;;;0.94;87.48
9746;BME280;4912;50.836;12.958;2023-01-27T05:12:32;98182.94;;;0.98;87.19
9746;BME280;4912;50.836;12.958;2023-01-27T05:15:06;98193.44;;;0.96;87.38
9746;BME280;4912;50.836;12.958;2023-01-27T05:17:38;98193.06;;;0.97;87.24
9746;BME280;4912;50.836;12.958;2023-01-27T05:20:09;98198.13;;;0.99;86.90
9746;BME280;4912;50.836;12.958;2023-01-27T05:22:40;98193.84;;;0.98;86.86
9746;BME280;4912;50.836;12.958;2023-01-27T05:25:11;98197.34;;;0.95;87.63
9746;BME280;4912;50.836;12.958;2023-01-27T05:27:42;98206.28;;;0.95;87.81
9746;BME280;4912;50.836;12.958;2023-01-27T05:30:15;98200.84;;;0.95;88.04
9746;BME280;4912;50.836;12.958;2023-01-27T05:32:46;98202.41;;;1.00;88.02
9746;BME280;4912;50.836;12.958;2023-01-27T05:35:16;98207.84;;;1.00;88.35
9746;BME280;4912;50.836;12.958;2023-01-27T05:37:47;98206.28;;;0.95;88.24
9746;BME280;4912;50.836;12.958;2023-01-27T05:40:17;98214.09;;;0.93;88.72
9746;BME280;4912;50.836;12.958;2023-01-27T05:42:50;98209.44;;;0.94;89.17
9746;BME280;4912;50.836;12.958;2023-01-27T05:45:23;98207.47;;;0.94;89.03
9746;BME280;4912;50.836;12.958;2023-01-27T05:47:53;98210.56;;;1.00;88.65
9746;BME280;4912;50.836;12.958;2023-01-27T05:50:23;98214.06;;;1.04;87.69
9746;BME280;4912;50.836;12.958;2023-01-27T05:52:54;98211.31;;;1.04;87.54
9746;BME280;4912;50.836;12.958;2023-01-27T05:55:24;98212.88;;;1.01;87.83
9746;BME280;4912;50.836;12.958;2023-01-27T05:57:55;98208.59;;;1.00;87.48
9746;BME280;4912;50.836;12.958;2023-01-27T06:00:30;98208.63;;;0.97;87.74
9746;BME280;4912;50.836;12.958;2023-01-27T06:03:01;98212.13;;;0.97;87.36
9746;BME280;4912;50.836;12.958;2023-01-27T06:05:31;98213.28;;;0.96;87.75
9746;BME280;4912;50.836;12.958;2023-01-27T06:08:02;98205.91;;;0.97;87.78
9746;BME280;4912;50.836;12.958;2023-01-27T06:10:33;98205.13;;;0.96;87.75
9746;BME280;4912;50.836;12.958;2023-01-27T06:13:03;98220.69;;;0.99;88.13
9746;BME280;4912;50.836;12.958;2023-01-27T06:15:39;98207.84;;;1.00;87.97
9746;BME280;4912;50.836;12.958;2023-01-27T06:18:11;98214.47;;;0.99;87.99
9746;BME280;4912;50.836;12.958;2023-01-27T06:20:41;98224.97;;;0.97;88.52
9746;BME280;4912;50.836;12.958;2023-01-27T06:23:13;98224.94;;;1.00;88.81
9746;BME280;4912;50.836;12.958;2023-01-27T06:25:46;98226.91;;;1.00;88.65
9746;BME280;4912;50.836;12.958;2023-01-27T06:28:17;98219.91;;;0.99;88.43
9746;BME280;4912;50.836;12.958;2023-01-27T06:31:04;98233.91;;;1.01;88.36
9746;BME280;4912;50.836;12.958;2023-01-27T06:33:35;98228.44;;;1.01;88.68
9746;BME280;4912;50.836;12.958;2023-01-27T06:36:09;98227.66;;;1.00;89.03
9746;BME280;4912;50.836;12.958;2023-01-27T06:38:40;98234.69;;;1.01;89.44
9746;BME280;4912;50.836;12.958;2023-01-27T06:41:11;98235.09;;;1.00;89.53
9746;BME280;4912;50.836;12.958;2023-01-27T06:43:41;98238.19;;;1.02;89.42
9746;BME280;4912;50.836;12.958;2023-01-27T06:46:14;98238.56;;;1.04;89.22
9746;BME280;4912;50.836;12.958;2023-01-27T06:48:45;98246.38;;;1.05;89.56
9746;BME280;4912;50.836;12.958;2023-01-27T06:51:15;98253.34;;;1.03;89.52
9746;BME280;4912;50.836;12.958;2023-01-27T06:53:45;98249.84;;;1.02;89.79
9746;BME280;4912;50.836;12.958;2023-01-27T06:56:16;98258.03;;;1.02;89.58
9746;BME280;4912;50.836;12.958;2023-01-27T06:58:46;98252.97;;;1.04;89.66
9746;BME280;4912;50.836;12.958;2023-01-27T07:01:20;98260.75;;;1.02;89.89
9746;BME280;4912;50.836;12.958;2023-01-27T07:03:50;98261.91;;;1.01;89.62
9746;BME280;4912;50.836;12.958;2023-01-27T07:06:20;98259.22;;;1.05;89.66
9746;BME280;4912;50.836;12.958;2023-01-27T07:08:51;98248.66;;;1.07;88.83
9746;BME280;4912;50.836;12.958;2023-01-27T07:11:21;98248.69;;;1.03;89.03
9746;BME280;4912;50.836;12.958;2023-01-27T07:13:52;98254.16;;;1.03;88.96
9746;BME280;4912;50.836;12.958;2023-01-27T07:16:25;98255.69;;;1.01;88.55
9746;BME280;4912;50.836;12.958;2023-01-27T07:18:55;98258.06;;;0.99;88.70
9746;BME280;4912;50.836;12.958;2023-01-27T07:21:25;98249.84;;;1.02;89.02
9746;BME280;4912;50.836;12.958;2023-01-27T07:23:56;98256.09;;;0.99;88.90
9746;BME280;4912;50.836;12.958;2023-01-27T07:26:26;98254.91;;;1.00;88.62
9746;BME280;4912;50.836;12.958;2023-01-27T07:28:56;98249.47;;;1.04;88.51
9746;BME280;4912;50.836;12.958;2023-01-27T07:31:29;98253.34;;;1.06;88.10
9746;BME280;4912;50.836;12.958;2023-01-27T07:34:02;98255.28;;;1.09;88.09
9746;BME280;4912;50.836;12.958;2023-01-27T07:36:32;98266.59;;;1.11;87.68
9746;BME280;4912;50.836;12.958;2023-01-27T07:39:03;98271.63;;;1.13;87.35
9746;BME280;4912;50.836;12.958;2023-01-27T07:41:33;98271.25;;;1.14;87.27
9746;BME280;4912;50.836;12.958;2023-01-27T07:44:03;98281.38;;;1.17;87.06
9746;BME280;4912;50.836;12.958;2023-01-27T07:46:36;98280.59;;;1.17;87.02
9746;BME280;4912;50.836;12.958;2023-01-27T07:49:07;98279.03;;;1.16;87.43
9746;BME280;4912;50.836;12.958;2023-01-27T07:51:38;98287.59;;;1.14;87.14
9746;BME280;4912;50.836;12.958;2023-01-27T07:54:08;98290.28;;;1.21;87.05
9746;BME280;4912;50.836;12.958;2023-01-27T07:56:39;98292.25;;;1.21;86.76
9746;BME280;4912;50.836;12.958;2023-01-27T07:59:09;98300.41;;;1.21;86.53
9746;BME280;4912;50.836;12.958;2023-01-27T08:01:42;98299.63;;;1.24;86.43
9746;BME280;4912;50.836;12.958;2023-01-27T08:04:14;98295.72;;;1.29;86.12
9746;BME280;4912;50.836;12.958;2023-01-27T08:06:44;98300.03;;;1.30;85.55
9746;BME280;4912;50.836;12.958;2023-01-27T08:09:15;98310.53;;;1.28;85.31
9746;BME280;4912;50.836;12.958;2023-01-27T08:11:45;98304.69;;;1.29;85.48
9746;BME280;4912;50.836;12.958;2023-01-27T08:14:16;98307.00;;;1.31;85.74
9746;BME280;4912;50.836;12.958;2023-01-27T08:16:49;98312.06;;;1.32;85.22
9746;BME280;4912;50.836;12.958;2023-01-27T08:19:19;98317.91;;;1.31;85.06
9746;BME280;4912;50.836;12.958;2023-01-27T08:21:49;98321.81;;;1.30;85.75
9746;BME280;4912;50.836;12.958;2023-01-27T08:24:20;98319.47;;;1.32;85.92
9746;BME280;4912;50.836;12.958;2023-01-27T08:26:50;98325.69;;;1.32;85.88
9746;BME280;4912;50.836;12.958;2023-01-27T08:29:20;98324.91;;;1.32;86.10
9746;BME280;4912;50.836;12.958;2023-01-27T08:31:53;98326.47;;;1.33;85.95
9746;BME280;4912;50.836;12.958;2023-01-27T08:34:24;98321.41;;;1.35;85.92
9746;BME280;4912;50.836;12.958;2023-01-27T08:36:54;98329.97;;;1.37;86.05
9746;BME280;4912;50.836;12.958;2023-01-27T08:39:24;98329.19;;;1.40;85.77
9746;BME280;4912;50.836;12.958;2023-01-27T08:41:55;98331.53;;;1.38;85.92
9746;BME280;4912;50.836;12.958;2023-01-27T08:44:25;98330.34;;;1.39;85.75
9746;BME280;4912;50.836;12.958;2023-01-27T08:46:59;98321.78;;;1.44;85.66
9746;BME280;4912;50.836;12.958;2023-01-27T08:49:29;98325.66;;;1.43;85.85
9746;BME280;4912;50.836;12.958;2023-01-27T08:51:59;98336.56;;;1.43;86.03
9746;BME280;4912;50.836;12.958;2023-01-27T08:54:30;98330.75;;;1.41;86.12
9746;BME280;4912;50.836;12.958;2023-01-27T08:57:00;98331.50;;;1.45;86.31
9746;BME280;4912;50.836;12.958;2023-01-27T08:59:30;98331.47;;;1.48;86.28
9746;BME280;4912;50.836;12.958;2023-01-27T09:02:03;98332.69;;;1.40;86.52
9746;BME280;4912;50.836;12.958;2023-01-27T09:04:33;98330.34;;;1.46;86.78
9746;BME280;4912;50.836;12.958;2023-01-27T09:07:07;98338.53;;;1.46;86.35
9746;BME280;4912;50.836;12.958;2023-01-27T09:09:38;98330.72;;;1.44;86.15
9746;BME280;4912;50.836;12.958;2023-01-27T09:12:08;98334.63;;;1.47;86.58
9746;BME280;4912;50.836;12.958;2023-01-27T09:14:39;98331.91;;;1.47;86.72
9746;BME280;4912;50.836;12.958;2023-01-27T09:17:12;98333.41;;;1.55;87.01
9746;BME280;4912;50.836;12.958;2023-01-27T09:19:45;98335.34;;;1.61;86.63
9746;BME280;4912;50.836;12.958;2023-01-27T09:22:15;98337.22;;;1.79;86.15
9746;BME280;4912;50.836;12.958;2023-01-27T09:24:46;98344.22;;;1.83;85.47
9746;BME280;4912;50.836;12.958;2023-01-27T09:27:16;98338.72;;;1.94;85.39
9746;BME280;4912;50.836;12.958;2023-01-27T09:30:05;98344.97;;;1.94;85.35
9746;BME280;4912;50.836;12.958;2023-01-27T09:32:40;98345.69;;;2.05;84.92
9746;BME280;4912;50.836;12.958;2023-01-27T09:35:11;98345.25;;;2.11;84.30
9746;BME280;4912;50.836;12.958;2023-01-27T09:37:44;98348.78;;;2.08;84.24
9746;BME280;4912;50.836;12.958;2023-01-27T09:40:26;98351.47;;;2.15;84.45
9746;BME280;4912;50.836;12.958;2023-01-27T09:43:17;98353.47;;;2.03;83.43
9746;BME280;4912;50.836;12.958;2023-01-27T09:46:15;98360.50;;;2.04;82.90
9746;BME280;4912;50.836;12.958;2023-01-27T09:52:03;98351.06;;;2.13;83.61
9746;BME280;4912;50.836;12.958;2023-01-27T09:54:54;98355.34;;;2.21;82.96
9746;BME280;4912;50.836;12.958;2023-01-27T09:57:38;98361.97;;;2.23;81.82
9746;BME280;4912;50.836;12.958;2023-01-27T10:00:22;98358.44;;;2.23;81.89
9746;BME280;4912;50.836;12.958;2023-01-27T10:03:13;98363.56;;;2.14;81.04
9746;BME280;4912;50.836;12.958;2023-01-27T10:06:19;98359.66;;;2.15;81.00
9746;BME280;4912;50.836;12.958;2023-01-27T10:12:46;98352.28;;;2.08;81.99
9746;BME280;4912;50.836;12.958;2023-01-27T10:15:36;98349.94;;;2.06;82.27
9746;BME280;4912;50.836;12.958;2023-01-27T10:18:29;98352.66;;;2.06;82.74
9746;BME280;4912;50.836;12.958;2023-01-27T10:21:15;98349.59;;;2.04;83.12
9746;BME280;4912;50.836;12.958;2023-01-27T10:23:55;98345.28;;;2.03;83.44
9746;BME280;4912;50.836;12.958;2023-01-27T10:26:37;98348.00;;;2.07;83.49
9746;BME280;4912;50.836;12.958;2023-01-27T10:29:14;98346.44;;;2.10;83.54
9746;BME280;4912;50.836;12.958;2023-01-27T10:31:55;98346.03;;;2.11;83.71
9746;BME280;4912;50.836;12.958;2023-01-27T10:34:29;98349.56;;;2.12;84.16
9746;BME280;4912;50.836;12.958;2023-01-27T10:37:17;98351.84;;;2.13;83.79
9746;BME280;4912;50.836;12.958;2023-01-27T10:39:58;98349.16;;;2.10;83.64
9746;BME280;4912;50.836;12.958;2023-01-27T10:42:35;98348.78;;;2.08;84.17
9746;BME280;4912;50.836;12.958;2023-01-27T10:45:21;98357.75;;;2.08;84.47
9746;BME280;4912;50.836;12.958;2023-01-27T10:48:13;98351.13;;;2.05;84.12
9746;BME280;4912;50.836;12.958;2023-01-27T10:50:54;98351.50;;;2.08;84.54
9746;BME280;4912;50.836;12.958;2023-01-27T10:53:34;98353.88;;;2.05;85.14
9746;BME280;4912;50.836;12.958;2023-01-27T10:56:12;98353.44;;;2.11;85.24
9746;BME280;4912;50.836;12.958;2023-01-27T10:58:56;98356.53;;;2.13;85.30
9746;BME280;4912;50.836;12.958;2023-01-27T11:01:33;98357.69;;;2.19;85.34
9746;BME280;4912;50.836;12.958;2023-01-27T11:04:11;98351.81;;;2.24;85.12
9746;BME280;4912;50.836;12.958;2023-01-27T11:06:44;98361.56;;;2.21;85.24
9746;BME280;4912;50.836;12.958;2023-01-27T11:09:24;98349.09;;;2.24;85.08
9746;BME280;4912;50.836;12.958;2023-01-27T11:12:00;98359.63;;;2.18;85.18
9746;BME280;4912;50.836;12.958;2023-01-27T11:14:42;98364.34;;;2.18;84.90
9746;BME280;4912;50.836;12.958;2023-01-27T11:17:18;98359.19;;;2.27;85.01
9746;BME280;4912;50.836;12.958;2023-01-27T11:20:00;98364.22;;;2.32;84.99
9746;BME280;4912;50.836;12.958;2023-01-27T11:22:52;98355.63;;;2.37;85.06
9746;BME280;4912;50.836;12.958;2023-01-27T11:25:31;98366.53;;;2.37;84.99
9746;BME280;4912;50.836;12.958;2023-01-27T11:28:20;98353.66;;;2.37;85.14
9746;BME280;4912;50.836;12.958;2023-01-27T11:31:04;98360.66;;;2.42;84.72
9746;BME280;4912;50.836;12.958;2023-01-27T11:33:48;98356.41;;;2.41;85.02
9746;BME280;4912;50.836;12.958;2023-01-27T11:36:24;98355.56;;;2.44;85.31
9746;BME280;4912;50.836;12.958;2023-01-27T11:38:55;98353.25;;;2.46;85.34
9746;BME280;4912;50.836;12.958;2023-01-27T11:41:31;98354.78;;;2.47;85.28
9746;BME280;4912;50.836;12.958;2023-01-27T11:44:06;98358.69;;;2.46;85.25
9746;BME280;4912;50.836;12.958;2023-01-27T11:46:42;98361.03;;;2.44;85.41
9746;BME280;4912;50.836;12.958;2023-01-27T11:49:17;98360.25;;;2.47;85.73
9746;BME280;4912;50.836;12.958;2023-01-27T11:51:50;98362.59;;;2.45;85.74
9746;BME280;4912;50.836;12.958;2023-01-27T11:54:22;98364.97;;;2.39;85.64
9746;BME280;4912;50.836;12.958;2023-01-27T11:56:57;98358.75;;;2.39;86.19
9746;BME280;4912;50.836;12.958;2023-01-27T11:59:30;98356.44;;;2.34;86.48
9746;BME280;4912;50.836;12.958;2023-01-27T12:02:17;98355.25;;;2.31;86.76
9746;BME280;4912;50.836;12.958;2023-01-27T12:04:57;98358.81;;;2.28;87.31
9746;BME280;4912;50.836;12.958;2023-01-27T12:07:45;98347.84;;;2.32;87.53
9746;BME280;4912;50.836;12.958;2023-01-27T12:10:23;98347.09;;;2.28;87.39
9746;BME280;4912;50.836;12.958;2023-01-27T12:13:06;98340.84;;;2.31;87.43
9746;BME280;4912;50.836;12.958;2023-01-27T12:15:46;98342.00;;;2.30;87.83
9746;BME280;4912;50.836;12.958;2023-01-27T12:18:22;98336.91;;;2.39;87.96
9746;BME280;4912;50.836;12.958;2023-01-27T12:20:58;98333.34;;;2.45;87.48
9746;BME280;4912;50.836;12.958;2023-01-27T12:23:32;98326.66;;;2.50;87.08
9746;BME280;4912;50.836;12.958;2023-01-27T12:26:06;98327.41;;;2.54;86.77
9746;BME280;4912;50.836;12.958;2023-01-27T12:28:48;98329.66;;;2.66;86.33
9746;BME280;4912;50.836;12.958;2023-01-27T12:31:25;98323.00;;;2.71;85.89
9746;BME280;4912;50.836;12.958;2023-01-27T12:33:59;98319.50;;;2.70;85.77
9746;BME280;4912;50.836;12.958;2023-01-27T12:36:36;98317.56;;;2.67;85.92
9746;BME280;4912;50.836;12.958;2023-01-27T12:39:25;98317.19;;;2.65;86.13
9746;BME280;4912;50.836;12.958;2023-01-27T12:41:59;98311.78;;;2.58;86.09
9746;BME280;4912;50.836;12.958;2023-01-27T12:44:42;98311.34;;;2.63;86.06
9746;BME280;4912;50.836;12.958;2023-01-27T12:47:22;98312.84;;;2.71;85.93
9746;BME280;4912;50.836;12.958;2023-01-27T12:50:18;98309.75;;;2.69;85.69
9746;BME280;4912;50.836;12.958;2023-01-27T12:53:02;98301.16;;;2.67;86.09
9746;BME280;4912;50.836;12.958;2023-01-27T12:55:35;98313.28;;;2.66;85.98
9746;BME280;4912;50.836;12.958;2023-01-27T12:58:27;98316.34;;;2.72;86.58
9746;BME280;4912;50.836;12.958;2023-01-27T13:01:04;98308.94;;;2.72;86.58
9746;BME280;4912;50.836;12.958;2023-01-27T13:03:41;98318.28;;;2.75;86.67
9746;BME280;4912;50.836;12.958;2023-01-27T13:06:14;98313.22;;;2.73;87.09
9746;BME280;4912;50.836;12.958;2023-01-27T13:08:46;98321.75;;;2.79;86.76
9746;BME280;4912;50.836;12.958;2023-01-27T13:11:30;98308.88;;;2.79;86.52
9746;BME280;4912;50.836;12.958;2023-01-27T13:14:07;98317.84;;;2.80;86.62
9746;BME280;4912;50.836;12.958;2023-01-27T13:16:49;98315.50;;;2.82;86.54
9746;BME280;4912;50.836;12.958;2023-01-27T13:19:21;98309.66;;;2.80;87.00
9746;BME280;4912;50.836;12.958;2023-01-27T13:22:03;98314.34;;;2.79;87.05
9746;BME280;4912;50.836;12.958;2023-01-27T13:24:36;98322.53;;;2.79;86.84
9746;BME280;4912;50.836;12.958;2023-01-27T13:27:12;98311.22;;;2.77;86.50
9746;BME280;4912;50.836;12.958;2023-01-27T13:29:53;98316.34;;;2.72;86.42
9746;BME280;4912;50.836;12.958;2023-01-27T13:32:32;98318.72;;;2.66;86.83
9746;BME280;4912;50.836;12.958;2023-01-27T13:35:14;98313.28;;;2.66;87.36
9746;BME280;4912;50.836;12.958;2023-01-27T13:37:55;98305.84;;;2.67;87.15
9746;BME280;4912;50.836;12.958;2023-01-27T13:40:34;98310.88;;;2.72;87.05
9746;BME280;4912;50.836;12.958;2023-01-27T13:43:11;98304.22;;;2.76;87.53
9746;BME280;4912;50.836;12.958;2023-01-27T13:45:46;98316.63;;;2.84;87.48
9746;BME280;4912;50.836;12.958;2023-01-27T13:48:30;98316.13;;;2.97;87.65
9746;BME280;4912;50.836;12.958;2023-01-27T13:51:07;98309.88;;;3.00;86.89
9746;BME280;4912;50.836;12.958;2023-01-27T13:53:38;98317.25;;;3.03;86.08
9746;BME280;4912;50.836;12.958;2023-01-27T13:56:22;98319.97;;;3.03;85.86
9746;BME280;4912;50.836;12.958;2023-01-27T13:59:12;98321.53;;;3.04;86.16
9746;BME280;4912;50.836;12.958;2023-01-27T14:01:56;98328.56;;;3.05;85.40
9746;BME280;4912;50.836;12.958;2023-01-27T14:04:56;98330.63;;;2.94;85.72
9746;BME280;4912;50.836;12.958;2023-01-27T14:07:42;98331.00;;;2.92;86.10
9746;BME280;4912;50.836;12.958;2023-01-27T14:10:22;98333.41;;;2.86;86.53
9746;BME280;4912;50.836;12.958;2023-01-27T14:13:08;98341.22;;;2.84;86.78